sensor_id;sensor_type;location;lat;lon;timestamp;P1;durP1;ratioP1;P2;durP2;ratioP2
8423;SDS011;4249;49.072;9.770;2022-08-19T00:02:38;19.63;;;16.20;;
8423;SDS011;4249;49.072;9.770;2022-08-19T00:05:26;19.52;;;16.92;;
8423;SDS011;4249;49.072;9.770;2022-08-19T00:08:13;16.38;;;14.48;;
8423;SDS011;4249;49.072;9.770;2022-08-19T00:11:02;16.88;;;15.02;;
8423;SDS011;4249;49.072;9.770;2022-08-19T00:13:49;17.30;;;15.43;;
8423;SDS011;4249;49.072;9.770;2022-08-19T00:16:37;18.90;;;16.25;;
8423;SDS011;4249;49.072;9.770;2022-08-19T00:19:24;17.10;;;15.30;;
8423;SDS011;4249;49.072;9.770;2022-08-19T00:22:12;16.50;;;14.77;;
8423;SDS011;4249;49.072;9.770;2022-08-19T00:25:01;18.50;;;15.50;;
8423;SDS011;4249;49.072;9.770;2022-08-19T00:27:50;15.98;;;14.02;;
8423;SDS011;4249;49.072;9.770;2022-08-19T00:30:38;16.35;;;14.63;;
8423;SDS011;4249;49.072;9.770;2022-08-19T00:33:26;17.38;;;15.48;;
8423;SDS011;4249;49.072;9.770;2022-08-19T00:36:13;16.65;;;14.95;;
8423;SDS011;4249;49.072;9.770;2022-08-19T00:39:00;18.02;;;16.13;;
8423;SDS011;4249;49.072;9.770;2022-08-19T00:41:47;16.52;;;14.90;;
8423;SDS011;4249;49.072;9.770;2022-08-19T00:44:37;17.83;;;15.95;;
8423;SDS011;4249;49.072;9.770;2022-08-19T00:47:24;16.63;;;14.93;;
8423;SDS011;4249;49.072;9.770;2022-08-19T00:50:12;18.77;;;16.35;;
8423;SDS011;4249;49.072;9.770;2022-08-19T00:53:02;19.98;;;17.45;;
8423;SDS011;4249;49.072;9.770;2022-08-19T00:55:50;19.13;;;17.08;;
8423;SDS011;4249;49.072;9.770;2022-08-19T00:58:41;16.15;;;14.55;;
8423;SDS011;4249;49.072;9.770;2022-08-19T01:01:30;17.13;;;15.07;;
8423;SDS011;4249;49.072;9.770;2022-08-19T01:04:17;15.65;;;13.93;;
8423;SDS011;4249;49.072;9.770;2022-08-19T01:07:04;16.35;;;14.65;;
8423;SDS011;4249;49.072;9.770;2022-08-19T01:09:52;16.67;;;14.32;;
8423;SDS011;4249;49.072;9.770;2022-08-19T01:12:40;15.23;;;13.73;;
8423;SDS011;4249;49.072;9.770;2022-08-19T01:15:29;15.70;;;13.90;;
8423;SDS011;4249;49.072;9.770;2022-08-19T01:18:19;15.35;;;13.75;;
8423;SDS011;4249;49.072;9.770;2022-08-19T01:21:08;15.68;;;14.07;;
8423;SDS011;4249;49.072;9.770;2022-08-19T01:24:03;18.55;;;15.60;;
8423;SDS011;4249;49.072;9.770;2022-08-19T01:26:50;19.15;;;15.85;;
8423;SDS011;4249;49.072;9.770;2022-08-19T01:29:39;16.63;;;14.85;;
8423;SDS011;4249;49.072;9.770;2022-08-19T01:32:27;17.33;;;14.77;;
8423;SDS011;4249;49.072;9.770;2022-08-19T01:35:15;16.48;;;14.77;;
8423;SDS011;4249;49.072;9.770;2022-08-19T01:38:04;16.25;;;14.65;;
8423;SDS011;4249;49.072;9.770;2022-08-19T01:40:56;18.75;;;15.38;;
8423;SDS011;4249;49.072;9.770;2022-08-19T01:43:44;17.58;;;14.65;;
8423;SDS011;4249;49.072;9.770;2022-08-19T01:46:31;19.13;;;15.27;;
8423;SDS011;4249;49.072;9.770;2022-08-19T01:49:20;16.73;;;14.32;;
8423;SDS011;4249;49.072;9.770;2022-08-19T01:52:10;18.70;;;15.68;;
8423;SDS011;4249;49.072;9.770;2022-08-19T01:54:57;17.50;;;15.57;;
8423;SDS011;4249;49.072;9.770;2022-08-19T01:57:47;19.15;;;16.30;;
8423;SDS011;4249;49.072;9.770;2022-08-19T02:00:38;16.77;;;14.90;;
8423;SDS011;4249;49.072;9.770;2022-08-19T02:03:25;19.88;;;16.27;;
8423;SDS011;4249;49.072;9.770;2022-08-19T02:06:14;18.55;;;16.55;;
8423;SDS011;4249;49.072;9.770;2022-08-19T02:09:02;17.85;;;15.88;;
8423;SDS011;4249;49.072;9.770;2022-08-19T02:11:51;19.05;;;16.42;;
8423;SDS011;4249;49.072;9.770;2022-08-19T02:14:40;20.17;;;16.60;;
8423;SDS011;4249;49.072;9.770;2022-08-19T02:17:27;18.15;;;15.45;;
8423;SDS011;4249;49.072;9.770;2022-08-19T02:20:15;18.67;;;15.77;;
8423;SDS011;4249;49.072;9.770;2022-08-19T02:23:02;16.67;;;14.98;;
8423;SDS011;4249;49.072;9.770;2022-08-19T02:25:50;18.73;;;16.65;;
8423;SDS011;4249;49.072;9.770;2022-08-19T02:28:38;18.85;;;16.73;;
8423;SDS011;4249;49.072;9.770;2022-08-19T02:31:27;17.05;;;14.40;;
8423;SDS011;4249;49.072;9.770;2022-08-19T02:34:15;16.90;;;15.05;;
8423;SDS011;4249;49.072;9.770;2022-08-19T02:37:02;16.75;;;14.43;;
8423;SDS011;4249;49.072;9.770;2022-08-19T02:39:50;17.10;;;14.70;;
8423;SDS011;4249;49.072;9.770;2022-08-19T02:42:36;17.80;;;15.80;;
8423;SDS011;4249;49.072;9.770;2022-08-19T02:45:24;17.70;;;15.10;;
8423;SDS011;4249;49.072;9.770;2022-08-19T02:48:13;17.67;;;14.95;;
8423;SDS011;4249;49.072;9.770;2022-08-19T02:51:02;20.95;;;16.33;;
8423;SDS011;4249;49.072;9.770;2022-08-19T02:53:51;17.83;;;15.95;;
8423;SDS011;4249;49.072;9.770;2022-08-19T02:56:39;19.02;;;17.05;;
8423;SDS011;4249;49.072;9.770;2022-08-19T02:59:29;18.92;;;16.30;;
8423;SDS011;4249;49.072;9.770;2022-08-19T03:02:16;19.83;;;16.67;;
8423;SDS011;4249;49.072;9.770;2022-08-19T03:05:06;22.25;;;18.15;;
8423;SDS011;4249;49.072;9.770;2022-08-19T03:07:56;21.67;;;18.33;;
8423;SDS011;4249;49.072;9.770;2022-08-19T03:10:45;19.27;;;17.02;;
8423;SDS011;4249;49.072;9.770;2022-08-19T03:13:34;20.05;;;16.25;;
8423;SDS011;4249;49.072;9.770;2022-08-19T03:16:22;20.23;;;17.10;;
8423;SDS011;4249;49.072;9.770;2022-08-19T03:19:10;20.80;;;16.92;;
8423;SDS011;4249;49.072;9.770;2022-08-19T03:22:00;20.58;;;17.27;;
8423;SDS011;4249;49.072;9.770;2022-08-19T03:24:47;19.40;;;15.95;;
8423;SDS011;4249;49.072;9.770;2022-08-19T03:27:35;19.52;;;16.75;;
8423;SDS011;4249;49.072;9.770;2022-08-19T03:30:22;19.20;;;17.08;;
8423;SDS011;4249;49.072;9.770;2022-08-19T03:33:10;20.15;;;17.67;;
8423;SDS011;4249;49.072;9.770;2022-08-19T03:36:02;23.25;;;18.27;;
8423;SDS011;4249;49.072;9.770;2022-08-19T03:39:00;21.08;;;18.30;;
8423;SDS011;4249;49.072;9.770;2022-08-19T03:41:48;19.95;;;16.92;;
8423;SDS011;4249;49.072;9.770;2022-08-19T03:44:37;21.38;;;18.02;;
8423;SDS011;4249;49.072;9.770;2022-08-19T03:47:25;19.80;;;17.13;;
8423;SDS011;4249;49.072;9.770;2022-08-19T03:50:12;19.75;;;16.45;;
8423;SDS011;4249;49.072;9.770;2022-08-19T03:52:59;17.38;;;15.55;;
8423;SDS011;4249;49.072;9.770;2022-08-19T03:55:48;18.98;;;16.63;;
8423;SDS011;4249;49.072;9.770;2022-08-19T03:58:36;21.83;;;17.13;;
8423;SDS011;4249;49.072;9.770;2022-08-19T04:01:25;19.55;;;16.13;;
8423;SDS011;4249;49.072;9.770;2022-08-19T04:04:14;18.45;;;16.02;;
8423;SDS011;4249;49.072;9.770;2022-08-19T04:07:02;22.50;;;18.50;;
8423;SDS011;4249;49.072;9.770;2022-08-19T04:09:49;18.77;;;16.75;;
8423;SDS011;4249;49.072;9.770;2022-08-19T04:12:38;22.85;;;17.23;;
8423;SDS011;4249;49.072;9.770;2022-08-19T04:15:25;22.42;;;18.77;;
8423;SDS011;4249;49.072;9.770;2022-08-19T04:18:18;20.17;;;16.52;;
8423;SDS011;4249;49.072;9.770;2022-08-19T04:21:06;22.83;;;16.80;;
8423;SDS011;4249;49.072;9.770;2022-08-19T04:23:55;17.40;;;15.43;;
8423;SDS011;4249;49.072;9.770;2022-08-19T04:26:43;18.73;;;16.27;;
8423;SDS011;4249;49.072;9.770;2022-08-19T04:29:32;19.35;;;16.65;;
8423;SDS011;4249;49.072;9.770;2022-08-19T04:32:19;21.85;;;18.23;;
8423;SDS011;4249;49.072;9.770;2022-08-19T04:35:07;19.05;;;15.63;;
8423;SDS011;4249;49.072;9.770;2022-08-19T04:37:55;19.75;;;15.98;;
8423;SDS011;4249;49.072;9.770;2022-08-19T04:40:43;20.15;;;17.38;;
8423;SDS011;4249;49.072;9.770;2022-08-19T04:43:49;22.45;;;17.98;;
8423;SDS011;4249;49.072;9.770;2022-08-19T04:46:37;20.45;;;17.13;;
8423;SDS011;4249;49.072;9.770;2022-08-19T04:49:25;22.83;;;17.95;;
8423;SDS011;4249;49.072;9.770;2022-08-19T04:52:13;24.20;;;18.65;;
8423;SDS011;4249;49.072;9.770;2022-08-19T04:55:00;19.17;;;16.95;;
8423;SDS011;4249;49.072;9.770;2022-08-19T04:57:47;18.50;;;16.10;;
8423;SDS011;4249;49.072;9.770;2022-08-19T05:00:37;20.65;;;17.35;;
8423;SDS011;4249;49.072;9.770;2022-08-19T05:03:26;20.65;;;16.75;;
8423;SDS011;4249;49.072;9.770;2022-08-19T05:06:19;21.33;;;17.50;;
8423;SDS011;4249;49.072;9.770;2022-08-19T05:09:07;22.20;;;17.63;;
8423;SDS011;4249;49.072;9.770;2022-08-19T05:11:54;22.63;;;18.50;;
8423;SDS011;4249;49.072;9.770;2022-08-19T05:14:41;23.77;;;19.65;;
8423;SDS011;4249;49.072;9.770;2022-08-19T05:17:30;22.08;;;18.05;;
8423;SDS011;4249;49.072;9.770;2022-08-19T05:20:19;24.13;;;20.02;;
8423;SDS011;4249;49.072;9.770;2022-08-19T05:23:25;22.10;;;18.25;;
8423;SDS011;4249;49.072;9.770;2022-08-19T05:26:12;20.25;;;16.45;;
8423;SDS011;4249;49.072;9.770;2022-08-19T05:28:59;21.23;;;17.52;;
8423;SDS011;4249;49.072;9.770;2022-08-19T05:31:26;26.35;;;20.42;;
8423;SDS011;4249;49.072;9.770;2022-08-19T05:33:53;20.83;;;17.33;;
8423;SDS011;4249;49.072;9.770;2022-08-19T05:36:22;25.77;;;20.13;;
8423;SDS011;4249;49.072;9.770;2022-08-19T05:38:49;21.00;;;17.33;;
8423;SDS011;4249;49.072;9.770;2022-08-19T05:41:17;22.67;;;18.42;;
8423;SDS011;4249;49.072;9.770;2022-08-19T05:43:45;21.55;;;18.25;;
8423;SDS011;4249;49.072;9.770;2022-08-19T05:46:16;19.73;;;17.30;;
8423;SDS011;4249;49.072;9.770;2022-08-19T05:48:44;20.27;;;17.75;;
8423;SDS011;4249;49.072;9.770;2022-08-19T05:51:11;22.20;;;18.23;;
8423;SDS011;4249;49.072;9.770;2022-08-19T05:53:40;24.77;;;19.50;;
8423;SDS011;4249;49.072;9.770;2022-08-19T05:56:08;22.98;;;18.13;;
8423;SDS011;4249;49.072;9.770;2022-08-19T05:58:37;23.48;;;18.58;;
8423;SDS011;4249;49.072;9.770;2022-08-19T06:01:09;21.85;;;17.40;;
8423;SDS011;4249;49.072;9.770;2022-08-19T06:03:37;21.30;;;17.58;;
8423;SDS011;4249;49.072;9.770;2022-08-19T06:06:04;21.70;;;18.45;;
8423;SDS011;4249;49.072;9.770;2022-08-19T06:08:32;23.75;;;18.30;;
8423;SDS011;4249;49.072;9.770;2022-08-19T06:11:12;21.75;;;18.70;;
8423;SDS011;4249;49.072;9.770;2022-08-19T06:13:41;23.42;;;18.73;;
8423;SDS011;4249;49.072;9.770;2022-08-19T06:16:08;21.70;;;17.90;;
8423;SDS011;4249;49.072;9.770;2022-08-19T06:18:35;22.85;;;18.83;;
8423;SDS011;4249;49.072;9.770;2022-08-19T06:21:02;25.67;;;19.58;;
8423;SDS011;4249;49.072;9.770;2022-08-19T06:23:30;23.88;;;19.40;;
8423;SDS011;4249;49.072;9.770;2022-08-19T06:25:57;23.08;;;18.55;;
8423;SDS011;4249;49.072;9.770;2022-08-19T06:28:25;33.65;;;21.42;;
8423;SDS011;4249;49.072;9.770;2022-08-19T06:30:52;22.20;;;17.63;;
8423;SDS011;4249;49.072;9.770;2022-08-19T06:33:19;22.80;;;19.17;;
8423;SDS011;4249;49.072;9.770;2022-08-19T06:35:46;23.75;;;19.20;;
8423;SDS011;4249;49.072;9.770;2022-08-19T06:38:13;19.50;;;16.70;;
8423;SDS011;4249;49.072;9.770;2022-08-19T06:40:40;19.75;;;16.60;;
8423;SDS011;4249;49.072;9.770;2022-08-19T06:43:06;21.40;;;17.85;;
8423;SDS011;4249;49.072;9.770;2022-08-19T06:45:35;23.80;;;18.42;;
8423;SDS011;4249;49.072;9.770;2022-08-19T06:48:03;24.02;;;19.42;;
8423;SDS011;4249;49.072;9.770;2022-08-19T06:50:30;24.95;;;19.13;;
8423;SDS011;4249;49.072;9.770;2022-08-19T06:52:57;23.23;;;18.92;;
8423;SDS011;4249;49.072;9.770;2022-08-19T06:55:24;20.42;;;17.20;;
8423;SDS011;4249;49.072;9.770;2022-08-19T06:57:52;20.10;;;16.80;;
8423;SDS011;4249;49.072;9.770;2022-08-19T07:00:19;22.40;;;18.27;;
8423;SDS011;4249;49.072;9.770;2022-08-19T07:02:47;20.60;;;16.27;;
8423;SDS011;4249;49.072;9.770;2022-08-19T07:05:14;20.20;;;17.23;;
8423;SDS011;4249;49.072;9.770;2022-08-19T07:07:42;19.17;;;16.17;;
8423;SDS011;4249;49.072;9.770;2022-08-19T07:10:09;25.17;;;18.98;;
8423;SDS011;4249;49.072;9.770;2022-08-19T07:12:36;22.60;;;17.40;;
8423;SDS011;4249;49.072;9.770;2022-08-19T07:15:03;20.27;;;16.63;;
8423;SDS011;4249;49.072;9.770;2022-08-19T07:17:33;21.77;;;19.10;;
8423;SDS011;4249;49.072;9.770;2022-08-19T07:20:04;17.10;;;14.82;;
8423;SDS011;4249;49.072;9.770;2022-08-19T07:22:33;21.45;;;17.70;;
8423;SDS011;4249;49.072;9.770;2022-08-19T07:24:59;19.40;;;16.95;;
8423;SDS011;4249;49.072;9.770;2022-08-19T07:27:28;18.52;;;16.08;;
8423;SDS011;4249;49.072;9.770;2022-08-19T07:29:56;16.42;;;14.65;;
8423;SDS011;4249;49.072;9.770;2022-08-19T07:32:23;20.48;;;17.80;;
8423;SDS011;4249;49.072;9.770;2022-08-19T07:34:51;24.45;;;19.75;;
8423;SDS011;4249;49.072;9.770;2022-08-19T07:37:19;20.85;;;17.17;;
8423;SDS011;4249;49.072;9.770;2022-08-19T07:39:46;22.30;;;17.95;;
8423;SDS011;4249;49.072;9.770;2022-08-19T07:42:14;21.77;;;18.20;;
8423;SDS011;4249;49.072;9.770;2022-08-19T07:44:46;22.20;;;17.35;;
8423;SDS011;4249;49.072;9.770;2022-08-19T07:47:13;21.42;;;17.35;;
8423;SDS011;4249;49.072;9.770;2022-08-19T07:49:40;20.33;;;17.33;;
8423;SDS011;4249;49.072;9.770;2022-08-19T07:52:08;22.77;;;17.88;;
8423;SDS011;4249;49.072;9.770;2022-08-19T07:54:37;25.52;;;18.77;;
8423;SDS011;4249;49.072;9.770;2022-08-19T07:57:06;20.92;;;17.88;;
8423;SDS011;4249;49.072;9.770;2022-08-19T07:59:34;24.00;;;18.58;;
8423;SDS011;4249;49.072;9.770;2022-08-19T08:02:01;20.35;;;16.58;;
8423;SDS011;4249;49.072;9.770;2022-08-19T08:04:29;24.85;;;18.88;;
8423;SDS011;4249;49.072;9.770;2022-08-19T08:07:14;24.13;;;18.77;;
8423;SDS011;4249;49.072;9.770;2022-08-19T08:10:03;19.48;;;16.42;;
8423;SDS011;4249;49.072;9.770;2022-08-19T08:12:32;24.67;;;18.92;;
8423;SDS011;4249;49.072;9.770;2022-08-19T08:15:07;19.65;;;16.40;;
8423;SDS011;4249;49.072;9.770;2022-08-19T08:17:36;19.52;;;16.02;;
8423;SDS011;4249;49.072;9.770;2022-08-19T08:20:04;22.90;;;17.88;;
8423;SDS011;4249;49.072;9.770;2022-08-19T08:22:32;22.45;;;17.13;;
8423;SDS011;4249;49.072;9.770;2022-08-19T08:25:20;21.48;;;17.95;;
8423;SDS011;4249;49.072;9.770;2022-08-19T08:27:50;22.33;;;18.95;;
8423;SDS011;4249;49.072;9.770;2022-08-19T08:30:19;23.23;;;18.55;;
8423;SDS011;4249;49.072;9.770;2022-08-19T08:32:48;22.50;;;16.98;;
8423;SDS011;4249;49.072;9.770;2022-08-19T08:35:16;21.98;;;18.10;;
8423;SDS011;4249;49.072;9.770;2022-08-19T08:37:45;21.33;;;17.90;;
8423;SDS011;4249;49.072;9.770;2022-08-19T08:40:18;22.20;;;17.92;;
8423;SDS011;4249;49.072;9.770;2022-08-19T08:42:50;25.60;;;20.42;;
8423;SDS011;4249;49.072;9.770;2022-08-19T08:45:25;22.13;;;18.50;;
8423;SDS011;4249;49.072;9.770;2022-08-19T08:47:55;22.40;;;18.88;;
8423;SDS011;4249;49.072;9.770;2022-08-19T08:50:27;23.67;;;19.50;;
8423;SDS011;4249;49.072;9.770;2022-08-19T08:53:01;23.02;;;18.30;;
8423;SDS011;4249;49.072;9.770;2022-08-19T08:55:31;18.52;;;16.08;;
8423;SDS011;4249;49.072;9.770;2022-08-19T08:57:59;24.42;;;18.60;;
8423;SDS011;4249;49.072;9.770;2022-08-19T09:00:32;22.38;;;17.85;;
8423;SDS011;4249;49.072;9.770;2022-08-19T09:03:01;23.73;;;18.38;;
8423;SDS011;4249;49.072;9.770;2022-08-19T09:05:33;23.88;;;17.42;;
8423;SDS011;4249;49.072;9.770;2022-08-19T09:08:08;24.90;;;19.13;;
8423;SDS011;4249;49.072;9.770;2022-08-19T09:10:44;21.95;;;16.85;;
8423;SDS011;4249;49.072;9.770;2022-08-19T09:13:21;22.05;;;18.83;;
8423;SDS011;4249;49.072;9.770;2022-08-19T09:15:57;21.67;;;17.52;;
8423;SDS011;4249;49.072;9.770;2022-08-19T09:18:36;22.58;;;17.10;;
8423;SDS011;4249;49.072;9.770;2022-08-19T09:21:06;19.60;;;16.27;;
8423;SDS011;4249;49.072;9.770;2022-08-19T09:23:33;19.17;;;16.25;;
8423;SDS011;4249;49.072;9.770;2022-08-19T09:26:04;19.70;;;16.73;;
8423;SDS011;4249;49.072;9.770;2022-08-19T09:28:34;19.90;;;17.30;;
8423;SDS011;4249;49.072;9.770;2022-08-19T09:31:02;19.25;;;16.17;;
8423;SDS011;4249;49.072;9.770;2022-08-19T09:33:28;26.42;;;18.10;;
8423;SDS011;4249;49.072;9.770;2022-08-19T09:36:01;21.58;;;16.55;;
8423;SDS011;4249;49.072;9.770;2022-08-19T09:38:31;20.17;;;16.80;;
8423;SDS011;4249;49.072;9.770;2022-08-19T09:41:03;21.20;;;16.98;;
8423;SDS011;4249;49.072;9.770;2022-08-19T09:43:30;19.80;;;16.65;;
8423;SDS011;4249;49.072;9.770;2022-08-19T09:45:58;19.23;;;15.73;;
8423;SDS011;4249;49.072;9.770;2022-08-19T09:48:25;21.08;;;15.88;;
8423;SDS011;4249;49.072;9.770;2022-08-19T09:50:53;20.75;;;15.45;;
8423;SDS011;4249;49.072;9.770;2022-08-19T09:53:20;20.33;;;16.23;;
8423;SDS011;4249;49.072;9.770;2022-08-19T09:55:48;19.42;;;16.02;;
8423;SDS011;4249;49.072;9.770;2022-08-19T09:58:16;20.20;;;15.77;;
8423;SDS011;4249;49.072;9.770;2022-08-19T10:00:43;20.58;;;16.38;;
8423;SDS011;4249;49.072;9.770;2022-08-19T10:03:11;21.00;;;17.75;;
8423;SDS011;4249;49.072;9.770;2022-08-19T10:05:56;21.38;;;16.13;;
8423;SDS011;4249;49.072;9.770;2022-08-19T10:08:45;18.27;;;16.20;;
8423;SDS011;4249;49.072;9.770;2022-08-19T10:11:34;20.73;;;17.52;;
8423;SDS011;4249;49.072;9.770;2022-08-19T10:14:24;20.10;;;17.00;;
8423;SDS011;4249;49.072;9.770;2022-08-19T10:17:12;17.25;;;14.85;;
8423;SDS011;4249;49.072;9.770;2022-08-19T10:20:00;19.25;;;16.50;;
8423;SDS011;4249;49.072;9.770;2022-08-19T10:22:48;17.23;;;14.95;;
8423;SDS011;4249;49.072;9.770;2022-08-19T10:25:35;18.45;;;16.38;;
8423;SDS011;4249;49.072;9.770;2022-08-19T10:28:22;18.70;;;14.70;;
8423;SDS011;4249;49.072;9.770;2022-08-19T10:31:12;20.17;;;16.10;;
8423;SDS011;4249;49.072;9.770;2022-08-19T10:34:00;22.48;;;18.80;;
8423;SDS011;4249;49.072;9.770;2022-08-19T10:36:48;19.88;;;17.27;;
8423;SDS011;4249;49.072;9.770;2022-08-19T10:39:36;20.45;;;17.50;;
8423;SDS011;4249;49.072;9.770;2022-08-19T10:42:23;21.92;;;16.88;;
8423;SDS011;4249;49.072;9.770;2022-08-19T10:45:11;21.02;;;17.25;;
8423;SDS011;4249;49.072;9.770;2022-08-19T10:48:00;25.27;;;20.85;;
8423;SDS011;4249;49.072;9.770;2022-08-19T10:50:47;25.50;;;19.77;;
8423;SDS011;4249;49.072;9.770;2022-08-19T10:53:52;24.10;;;19.05;;
8423;SDS011;4249;49.072;9.770;2022-08-19T10:56:40;24.25;;;18.90;;
8423;SDS011;4249;49.072;9.770;2022-08-19T10:59:38;22.30;;;18.30;;
8423;SDS011;4249;49.072;9.770;2022-08-19T11:02:26;25.10;;;20.90;;
8423;SDS011;4249;49.072;9.770;2022-08-19T11:05:15;23.88;;;19.48;;
8423;SDS011;4249;49.072;9.770;2022-08-19T11:08:03;21.55;;;18.40;;
8423;SDS011;4249;49.072;9.770;2022-08-19T11:10:51;22.02;;;19.08;;
8423;SDS011;4249;49.072;9.770;2022-08-19T11:13:41;21.75;;;18.52;;
8423;SDS011;4249;49.072;9.770;2022-08-19T11:16:29;23.13;;;18.55;;
8423;SDS011;4249;49.072;9.770;2022-08-19T11:19:17;24.40;;;20.10;;
8423;SDS011;4249;49.072;9.770;2022-08-19T11:22:08;21.52;;;18.83;;
8423;SDS011;4249;49.072;9.770;2022-08-19T11:24:55;25.17;;;20.25;;
8423;SDS011;4249;49.072;9.770;2022-08-19T11:27:43;20.60;;;18.08;;
8423;SDS011;4249;49.072;9.770;2022-08-19T11:30:32;19.75;;;17.52;;
8423;SDS011;4249;49.072;9.770;2022-08-19T11:33:19;23.10;;;20.05;;
8423;SDS011;4249;49.072;9.770;2022-08-19T11:36:07;24.80;;;21.20;;
8423;SDS011;4249;49.072;9.770;2022-08-19T11:38:56;22.10;;;19.67;;
8423;SDS011;4249;49.072;9.770;2022-08-19T11:41:43;19.42;;;17.38;;
8423;SDS011;4249;49.072;9.770;2022-08-19T11:44:30;22.92;;;20.15;;
8423;SDS011;4249;49.072;9.770;2022-08-19T11:47:17;23.73;;;19.52;;
8423;SDS011;4249;49.072;9.770;2022-08-19T11:50:05;27.38;;;22.67;;
8423;SDS011;4249;49.072;9.770;2022-08-19T11:52:53;20.95;;;18.58;;
8423;SDS011;4249;49.072;9.770;2022-08-19T11:55:43;29.50;;;23.45;;
8423;SDS011;4249;49.072;9.770;2022-08-19T11:58:30;26.63;;;21.55;;
8423;SDS011;4249;49.072;9.770;2022-08-19T12:01:18;27.58;;;22.05;;
8423;SDS011;4249;49.072;9.770;2022-08-19T12:04:08;26.92;;;22.88;;
8423;SDS011;4249;49.072;9.770;2022-08-19T12:06:55;27.70;;;22.38;;
8423;SDS011;4249;49.072;9.770;2022-08-19T12:09:42;24.92;;;21.45;;
8423;SDS011;4249;49.072;9.770;2022-08-19T12:12:31;28.67;;;21.77;;
8423;SDS011;4249;49.072;9.770;2022-08-19T12:15:18;25.48;;;21.65;;
8423;SDS011;4249;49.072;9.770;2022-08-19T12:18:06;26.00;;;22.65;;
8423;SDS011;4249;49.072;9.770;2022-08-19T12:20:55;27.02;;;22.00;;
8423;SDS011;4249;49.072;9.770;2022-08-19T12:23:42;28.85;;;23.10;;
8423;SDS011;4249;49.072;9.770;2022-08-19T12:26:30;26.60;;;23.17;;
8423;SDS011;4249;49.072;9.770;2022-08-19T12:29:19;26.27;;;22.75;;
8423;SDS011;4249;49.072;9.770;2022-08-19T12:32:07;27.48;;;23.25;;
8423;SDS011;4249;49.072;9.770;2022-08-19T12:34:54;24.77;;;19.80;;
8423;SDS011;4249;49.072;9.770;2022-08-19T12:37:42;27.08;;;22.88;;
8423;SDS011;4249;49.072;9.770;2022-08-19T12:40:30;25.83;;;22.00;;
8423;SDS011;4249;49.072;9.770;2022-08-19T12:43:17;29.77;;;23.58;;
8423;SDS011;4249;49.072;9.770;2022-08-19T12:46:07;27.38;;;23.02;;
8423;SDS011;4249;49.072;9.770;2022-08-19T12:48:54;24.95;;;22.25;;
8423;SDS011;4249;49.072;9.770;2022-08-19T12:51:43;23.90;;;21.15;;
8423;SDS011;4249;49.072;9.770;2022-08-19T12:54:31;26.45;;;20.85;;
8423;SDS011;4249;49.072;9.770;2022-08-19T12:57:18;24.90;;;19.98;;
8423;SDS011;4249;49.072;9.770;2022-08-19T13:00:07;23.63;;;19.23;;
8423;SDS011;4249;49.072;9.770;2022-08-19T13:02:59;23.48;;;18.33;;
8423;SDS011;4249;49.072;9.770;2022-08-19T13:05:46;23.75;;;18.23;;
8423;SDS011;4249;49.072;9.770;2022-08-19T13:08:35;19.20;;;15.55;;
8423;SDS011;4249;49.072;9.770;2022-08-19T13:11:23;18.98;;;16.23;;
8423;SDS011;4249;49.072;9.770;2022-08-19T13:14:10;17.45;;;15.65;;
8423;SDS011;4249;49.072;9.770;2022-08-19T13:16:58;17.45;;;15.38;;
8423;SDS011;4249;49.072;9.770;2022-08-19T13:19:46;19.63;;;17.30;;
8423;SDS011;4249;49.072;9.770;2022-08-19T13:22:34;19.10;;;17.08;;
8423;SDS011;4249;49.072;9.770;2022-08-19T13:25:21;17.70;;;15.68;;
8423;SDS011;4249;49.072;9.770;2022-08-19T13:28:09;21.67;;;17.05;;
8423;SDS011;4249;49.072;9.770;2022-08-19T13:30:56;19.33;;;17.20;;
8423;SDS011;4249;49.072;9.770;2022-08-19T13:34:06;19.48;;;16.90;;
8423;SDS011;4249;49.072;9.770;2022-08-19T13:36:55;19.70;;;16.95;;
8423;SDS011;4249;49.072;9.770;2022-08-19T13:39:42;17.83;;;15.93;;
8423;SDS011;4249;49.072;9.770;2022-08-19T13:42:30;19.52;;;17.30;;
8423;SDS011;4249;49.072;9.770;2022-08-19T13:45:19;19.60;;;17.38;;
8423;SDS011;4249;49.072;9.770;2022-08-19T13:48:08;18.90;;;16.90;;
8423;SDS011;4249;49.072;9.770;2022-08-19T13:50:55;21.08;;;18.02;;
8423;SDS011;4249;49.072;9.770;2022-08-19T13:53:44;20.38;;;15.10;;
8423;SDS011;4249;49.072;9.770;2022-08-19T13:56:31;19.08;;;16.83;;
8423;SDS011;4249;49.072;9.770;2022-08-19T13:59:18;16.80;;;14.85;;
8423;SDS011;4249;49.072;9.770;2022-08-19T14:02:06;15.63;;;13.93;;
8423;SDS011;4249;49.072;9.770;2022-08-19T14:04:53;15.98;;;14.23;;
8423;SDS011;4249;49.072;9.770;2022-08-19T14:07:40;15.32;;;13.73;;
8423;SDS011;4249;49.072;9.770;2022-08-19T14:10:29;21.17;;;17.23;;
8423;SDS011;4249;49.072;9.770;2022-08-19T14:13:18;20.75;;;18.55;;
8423;SDS011;4249;49.072;9.770;2022-08-19T14:16:07;22.00;;;18.67;;
8423;SDS011;4249;49.072;9.770;2022-08-19T14:18:55;19.45;;;17.27;;
8423;SDS011;4249;49.072;9.770;2022-08-19T14:21:42;19.25;;;17.20;;
8423;SDS011;4249;49.072;9.770;2022-08-19T14:24:30;20.20;;;17.90;;
8423;SDS011;4249;49.072;9.770;2022-08-19T14:27:19;16.42;;;14.35;;
8423;SDS011;4249;49.072;9.770;2022-08-19T14:30:06;16.55;;;14.15;;
8423;SDS011;4249;49.072;9.770;2022-08-19T14:32:56;18.20;;;16.33;;
8423;SDS011;4249;49.072;9.770;2022-08-19T14:35:45;15.25;;;13.73;;
8423;SDS011;4249;49.072;9.770;2022-08-19T14:38:32;17.38;;;14.25;;
8423;SDS011;4249;49.072;9.770;2022-08-19T14:41:21;18.05;;;15.32;;
8423;SDS011;4249;49.072;9.770;2022-08-19T14:44:13;16.73;;;14.82;;
8423;SDS011;4249;49.072;9.770;2022-08-19T14:47:00;17.38;;;15.50;;
8423;SDS011;4249;49.072;9.770;2022-08-19T14:49:48;19.25;;;17.25;;
8423;SDS011;4249;49.072;9.770;2022-08-19T14:52:35;19.08;;;16.92;;
8423;SDS011;4249;49.072;9.770;2022-08-19T14:55:22;19.42;;;17.30;;
8423;SDS011;4249;49.072;9.770;2022-08-19T14:58:10;19.98;;;17.27;;
8423;SDS011;4249;49.072;9.770;2022-08-19T15:00:59;15.13;;;13.23;;
8423;SDS011;4249;49.072;9.770;2022-08-19T15:03:48;16.52;;;14.77;;
8423;SDS011;4249;49.072;9.770;2022-08-19T15:06:39;18.92;;;16.27;;
8423;SDS011;4249;49.072;9.770;2022-08-19T15:09:27;18.33;;;15.80;;
8423;SDS011;4249;49.072;9.770;2022-08-19T15:12:14;20.38;;;16.95;;
8423;SDS011;4249;49.072;9.770;2022-08-19T15:15:02;18.35;;;16.42;;
8423;SDS011;4249;49.072;9.770;2022-08-19T15:17:51;16.33;;;13.82;;
8423;SDS011;4249;49.072;9.770;2022-08-19T15:20:38;16.48;;;14.77;;
8423;SDS011;4249;49.072;9.770;2022-08-19T15:23:25;16.73;;;14.85;;
8423;SDS011;4249;49.072;9.770;2022-08-19T15:26:13;17.80;;;15.88;;
8423;SDS011;4249;49.072;9.770;2022-08-19T15:29:00;16.05;;;13.48;;
8423;SDS011;4249;49.072;9.770;2022-08-19T15:31:48;17.98;;;15.70;;
8423;SDS011;4249;49.072;9.770;2022-08-19T15:34:37;18.70;;;15.57;;
8423;SDS011;4249;49.072;9.770;2022-08-19T15:37:24;17.75;;;15.85;;
8423;SDS011;4249;49.072;9.770;2022-08-19T15:40:11;18.10;;;16.05;;
8423;SDS011;4249;49.072;9.770;2022-08-19T15:42:59;17.27;;;15.45;;
8423;SDS011;4249;49.072;9.770;2022-08-19T15:45:46;17.85;;;15.98;;
8423;SDS011;4249;49.072;9.770;2022-08-19T15:48:34;18.33;;;16.45;;
8423;SDS011;4249;49.072;9.770;2022-08-19T15:51:24;18.27;;;16.38;;
8423;SDS011;4249;49.072;9.770;2022-08-19T15:54:14;15.30;;;13.65;;
8423;SDS011;4249;49.072;9.770;2022-08-19T15:57:05;19.17;;;16.40;;
8423;SDS011;4249;49.072;9.770;2022-08-19T16:00:10;22.70;;;19.30;;
8423;SDS011;4249;49.072;9.770;2022-08-19T16:03:16;21.05;;;17.63;;
8423;SDS011;4249;49.072;9.770;2022-08-19T16:06:20;21.58;;;18.58;;
8423;SDS011;4249;49.072;9.770;2022-08-19T16:09:15;19.60;;;17.60;;
8423;SDS011;4249;49.072;9.770;2022-08-19T16:12:04;19.15;;;16.83;;
8423;SDS011;4249;49.072;9.770;2022-08-19T16:14:54;17.10;;;15.40;;
8423;SDS011;4249;49.072;9.770;2022-08-19T16:17:42;20.00;;;17.90;;
8423;SDS011;4249;49.072;9.770;2022-08-19T16:20:29;22.08;;;18.05;;
8423;SDS011;4249;49.072;9.770;2022-08-19T16:23:17;21.02;;;18.05;;